sensor_id;sensor_type;location;lat;lon;timestamp;P1;durP1;ratioP1;P2;durP2;ratioP2
77164;SDS011;66140;50.280;18.660;2023-02-01T05:02:47;7.68;;;3.22;;
77164;SDS011;66140;50.280;18.660;2023-02-01T05:05:30;6.22;;;2.00;;
77164;SDS011;66140;50.280;18.660;2023-02-01T05:07:56;5.90;;;2.65;;
77164;SDS011;66140;50.280;18.660;2023-02-01T05:10:21;11.35;;;3.58;;
77164;SDS011;66140;50.280;18.660;2023-02-01T05:12:47;5.75;;;2.60;;
77164;SDS011;66140;50.280;18.660;2023-02-01T05:15:31;3.25;;;2.67;;
77164;SDS011;66140;50.280;18.660;2023-02-01T05:17:56;5.47;;;2.25;;
77164;SDS011;66140;50.280;18.660;2023-02-01T05:20:22;11.13;;;4.22;;
77164;SDS011;66140;50.280;18.660;2023-02-01T05:22:49;5.38;;;2.75;;
77164;SDS011;66140;50.280;18.660;2023-02-01T05:25:14;6.40;;;2.30;;
77164;SDS011;66140;50.280;18.660;2023-02-01T05:27:39;8.70;;;2.53;;
77164;SDS011;66140;50.280;18.660;2023-02-01T05:30:05;3.63;;;1.88;;
77164;SDS011;66140;50.280;18.660;2023-02-01T05:32:31;11.10;;;2.25;;
77164;SDS011;66140;50.280;18.660;2023-02-01T05:34:57;5.35;;;1.25;;
77164;SDS011;66140;50.280;18.660;2023-02-01T05:37:22;3.38;;;1.50;;
77164;SDS011;66140;50.280;18.660;2023-02-01T05:39:48;5.85;;;1.70;;
77164;SDS011;66140;50.280;18.660;2023-02-01T05:42:16;3.67;;;1.67;;
77164;SDS011;66140;50.280;18.660;2023-02-01T05:44:41;7.18;;;1.77;;
77164;SDS011;66140;50.280;18.660;2023-02-01T05:47:07;3.30;;;1.30;;
77164;SDS011;66140;50.280;18.660;2023-02-01T05:49:32;4.32;;;1.90;;
77164;SDS011;66140;50.280;18.660;2023-02-01T05:52:01;7.22;;;1.95;;
77164;SDS011;66140;50.280;18.660;2023-02-01T05:54:27;5.97;;;1.85;;
77164;SDS011;66140;50.280;18.660;2023-02-01T05:56:55;5.75;;;1.92;;
77164;SDS011;66140;50.280;18.660;2023-02-01T05:59:24;3.33;;;1.90;;
77164;SDS011;66140;50.280;18.660;2023-02-01T06:01:50;3.53;;;1.20;;
77164;SDS011;66140;50.280;18.660;2023-02-01T06:04:28;5.60;;;1.92;;
77164;SDS011;66140;50.280;18.660;2023-02-01T06:06:53;6.78;;;1.88;;
77164;SDS011;66140;50.280;18.660;2023-02-01T06:09:19;3.75;;;1.65;;
77164;SDS011;66140;50.280;18.660;2023-02-01T06:11:44;3.03;;;1.60;;
77164;SDS011;66140;50.280;18.660;2023-02-01T06:14:18;6.43;;;1.85;;
77164;SDS011;66140;50.280;18.660;2023-02-01T06:16:46;9.82;;;2.38;;
77164;SDS011;66140;50.280;18.660;2023-02-01T06:19:12;4.38;;;1.25;;
77164;SDS011;66140;50.280;18.660;2023-02-01T06:21:38;3.05;;;1.75;;
77164;SDS011;66140;50.280;18.660;2023-02-01T06:24:04;3.28;;;1.65;;
77164;SDS011;66140;50.280;18.660;2023-02-01T06:26:29;2.88;;;1.02;;
77164;SDS011;66140;50.280;18.660;2023-02-01T06:28:55;3.80;;;1.50;;
77164;SDS011;66140;50.280;18.660;2023-02-01T06:31:21;3.75;;;1.38;;
77164;SDS011;66140;50.280;18.660;2023-02-01T06:33:48;3.20;;;1.52;;
77164;SDS011;66140;50.280;18.660;2023-02-01T06:36:13;9.32;;;2.25;;
77164;SDS011;66140;50.280;18.660;2023-02-01T06:38:41;5.85;;;2.05;;
77164;SDS011;66140;50.280;18.660;2023-02-01T06:41:09;7.05;;;2.50;;
77164;SDS011;66140;50.280;18.660;2023-02-01T06:43:36;19.20;;;3.03;;
77164;SDS011;66140;50.280;18.660;2023-02-01T06:46:03;2.95;;;2.10;;
77164;SDS011;66140;50.280;18.660;2023-02-01T06:48:56;8.45;;;2.72;;
77164;SDS011;66140;50.280;18.660;2023-02-01T06:51:27;7.53;;;2.28;;
77164;SDS011;66140;50.280;18.660;2023-02-01T06:54:17;6.35;;;2.38;;
77164;SDS011;66140;50.280;18.660;2023-02-01T06:56:45;8.50;;;1.77;;
77164;SDS011;66140;50.280;18.660;2023-02-01T06:59:11;3.97;;;1.10;;
77164;SDS011;66140;50.280;18.660;2023-02-01T07:01:36;5.45;;;2.13;;
77164;SDS011;66140;50.280;18.660;2023-02-01T07:04:02;5.32;;;2.15;;
77164;SDS011;66140;50.280;18.660;2023-02-01T07:06:30;8.07;;;2.50;;
77164;SDS011;66140;50.280;18.660;2023-02-01T07:08:57;6.68;;;2.38;;
77164;SDS011;66140;50.280;18.660;2023-02-01T07:11:43;8.00;;;2.42;;
77164;SDS011;66140;50.280;18.660;2023-02-01T07:14:33;8.57;;;2.45;;
77164;SDS011;66140;50.280;18.660;2023-02-01T07:17:19;4.57;;;2.13;;
77164;SDS011;66140;50.280;18.660;2023-02-01T07:19:50;9.30;;;1.90;;
77164;SDS011;66140;50.280;18.660;2023-02-01T07:22:27;7.75;;;2.00;;
77164;SDS011;66140;50.280;18.660;2023-02-01T07:24:55;8.00;;;2.08;;
77164;SDS011;66140;50.280;18.660;2023-02-01T07:27:35;10.00;;;3.38;;
77164;SDS011;66140;50.280;18.660;2023-02-01T07:30:39;11.00;;;2.83;;
77164;SDS011;66140;50.280;18.660;2023-02-01T07:35:33;6.22;;;2.53;;
77164;SDS011;66140;50.280;18.660;2023-02-01T07:40:57;10.18;;;2.90;;
77164;SDS011;66140;50.280;18.660;2023-02-01T07:43:27;12.25;;;3.17;;
77164;SDS011;66140;50.280;18.660;2023-02-01T07:45:53;12.02;;;4.00;;
77164;SDS011;66140;50.280;18.660;2023-02-01T07:48:20;11.38;;;3.05;;
77164;SDS011;66140;50.280;18.660;2023-02-01T07:57:08;11.00;;;3.63;;
77164;SDS011;66140;50.280;18.660;2023-02-01T07:59:47;9.27;;;3.33;;
77164;SDS011;66140;50.280;18.660;2023-02-01T08:02:34;12.15;;;3.70;;
77164;SDS011;66140;50.280;18.660;2023-02-01T08:05:00;8.23;;;3.42;;
77164;SDS011;66140;50.280;18.660;2023-02-01T08:07:25;9.10;;;4.07;;
77164;SDS011;66140;50.280;18.660;2023-02-01T08:09:53;11.05;;;3.50;;
77164;SDS011;66140;50.280;18.660;2023-02-01T08:12:19;9.35;;;3.55;;
77164;SDS011;66140;50.280;18.660;2023-02-01T08:14:55;8.48;;;4.03;;
77164;SDS011;66140;50.280;18.660;2023-02-01T08:17:23;9.63;;;3.92;;
77164;SDS011;66140;50.280;18.660;2023-02-01T08:19:48;10.40;;;3.88;;
77164;SDS011;66140;50.280;18.660;2023-02-01T08:22:40;4.13;;;2.40;;
77164;SDS011;66140;50.280;18.660;2023-02-01T08:25:42;10.95;;;3.50;;
77164;SDS011;66140;50.280;18.660;2023-02-01T08:28:09;6.45;;;3.50;;
77164;SDS011;66140;50.280;18.660;2023-02-01T08:30:41;8.75;;;2.95;;
77164;SDS011;66140;50.280;18.660;2023-02-01T08:33:09;7.32;;;3.15;;
77164;SDS011;66140;50.280;18.660;2023-02-01T08:38:22;11.43;;;3.90;;
77164;SDS011;66140;50.280;18.660;2023-02-01T08:40:50;6.68;;;2.90;;
77164;SDS011;66140;50.280;18.660;2023-02-01T08:43:16;8.13;;;3.60;;
77164;SDS011;66140;50.280;18.660;2023-02-01T08:45:41;7.13;;;3.28;;
77164;SDS011;66140;50.280;18.660;2023-02-01T08:48:07;8.05;;;3.33;;
77164;SDS011;66140;50.280;18.660;2023-02-01T08:50:37;7.25;;;3.35;;
77164;SDS011;66140;50.280;18.660;2023-02-01T08:56:11;7.53;;;3.40;;
77164;SDS011;66140;50.280;18.660;2023-02-01T08:58:55;13.02;;;4.10;;
77164;SDS011;66140;50.280;18.660;2023-02-01T09:01:23;11.65;;;3.55;;
77164;SDS011;66140;50.280;18.660;2023-02-01T09:03:49;12.68;;;3.90;;
77164;SDS011;66140;50.280;18.660;2023-02-01T09:06:17;6.28;;;2.83;;
77164;SDS011;66140;50.280;18.660;2023-02-01T09:09:13;11.65;;;4.18;;
77164;SDS011;66140;50.280;18.660;2023-02-01T09:11:51;13.60;;;4.25;;
77164;SDS011;66140;50.280;18.660;2023-02-01T09:14:37;13.27;;;4.40;;
77164;SDS011;66140;50.280;18.660;2023-02-01T09:17:05;12.00;;;5.03;;
77164;SDS011;66140;50.280;18.660;2023-02-01T09:19:31;11.80;;;4.00;;
77164;SDS011;66140;50.280;18.660;2023-02-01T09:21:57;9.38;;;4.25;;
77164;SDS011;66140;50.280;18.660;2023-02-01T09:24:25;10.55;;;4.10;;
77164;SDS011;66140;50.280;18.660;2023-02-01T09:26:51;11.52;;;4.05;;
77164;SDS011;66140;50.280;18.660;2023-02-01T09:29:17;11.38;;;4.68;;
77164;SDS011;66140;50.280;18.660;2023-02-01T09:32:02;12.45;;;4.35;;
77164;SDS011;66140;50.280;18.660;2023-02-01T09:34:28;8.57;;;3.70;;
77164;SDS011;66140;50.280;18.660;2023-02-01T09:36:53;13.63;;;4.53;;
77164;SDS011;66140;50.280;18.660;2023-02-01T09:39:19;11.93;;;5.40;;
77164;SDS011;66140;50.280;18.660;2023-02-01T09:47:17;17.30;;;5.35;;
77164;SDS011;66140;50.280;18.660;2023-02-01T09:49:49;9.57;;;4.50;;
77164;SDS011;66140;50.280;18.660;2023-02-01T09:52:23;13.07;;;5.53;;
77164;SDS011;66140;50.280;18.660;2023-02-01T09:55:04;13.98;;;5.20;;
77164;SDS011;66140;50.280;18.660;2023-02-01T09:57:53;12.85;;;5.13;;
77164;SDS011;66140;50.280;18.660;2023-02-01T10:02:50;16.65;;;4.97;;
77164;SDS011;66140;50.280;18.660;2023-02-01T10:05:21;10.55;;;4.43;;
77164;SDS011;66140;50.280;18.660;2023-02-01T10:11:18;9.65;;;4.18;;
77164;SDS011;66140;50.280;18.660;2023-02-01T10:16:33;10.80;;;4.55;;
77164;SDS011;66140;50.280;18.660;2023-02-01T10:22:35;12.65;;;4.53;;
77164;SDS011;66140;50.280;18.660;2023-02-01T10:27:48;13.93;;;4.43;;
77164;SDS011;66140;50.280;18.660;2023-02-01T10:30:21;13.40;;;4.75;;
77164;SDS011;66140;50.280;18.660;2023-02-01T10:33:01;12.35;;;4.70;;
77164;SDS011;66140;50.280;18.660;2023-02-01T10:35:51;9.13;;;4.07;;
77164;SDS011;66140;50.280;18.660;2023-02-01T10:38:27;12.43;;;4.43;;
77164;SDS011;66140;50.280;18.660;2023-02-01T10:40:55;10.30;;;5.13;;
77164;SDS011;66140;50.280;18.660;2023-02-01T10:43:26;11.60;;;4.90;;
77164;SDS011;66140;50.280;18.660;2023-02-01T10:45:51;8.93;;;4.50;;
77164;SDS011;66140;50.280;18.660;2023-02-01T10:48:16;11.95;;;5.45;;
77164;SDS011;66140;50.280;18.660;2023-02-01T10:55:52;11.50;;;5.07;;
77164;SDS011;66140;50.280;18.660;2023-02-01T10:58:28;10.45;;;4.50;;
77164;SDS011;66140;50.280;18.660;2023-02-01T11:00:57;9.95;;;4.55;;
77164;SDS011;66140;50.280;18.660;2023-02-01T11:03:34;10.98;;;4.32;;
77164;SDS011;66140;50.280;18.660;2023-02-01T11:08:48;10.48;;;4.55;;
77164;SDS011;66140;50.280;18.660;2023-02-01T11:11:15;9.68;;;3.85;;
77164;SDS011;66140;50.280;18.660;2023-02-01T11:13:41;12.27;;;3.90;;
77164;SDS011;66140;50.280;18.660;2023-02-01T11:16:11;7.10;;;3.00;;
77164;SDS011;66140;50.280;18.660;2023-02-01T11:18:39;6.72;;;2.42;;
77164;SDS011;66140;50.280;18.660;2023-02-01T11:21:05;7.90;;;2.38;;
77164;SDS011;66140;50.280;18.660;2023-02-01T11:23:32;9.88;;;2.60;;
77164;SDS011;66140;50.280;18.660;2023-02-01T11:26:01;5.32;;;2.63;;
77164;SDS011;66140;50.280;18.660;2023-02-01T11:28:35;5.93;;;2.10;;
77164;SDS011;66140;50.280;18.660;2023-02-01T11:31:04;6.20;;;2.20;;
77164;SDS011;66140;50.280;18.660;2023-02-01T11:33:35;4.80;;;1.52;;
77164;SDS011;66140;50.280;18.660;2023-02-01T11:38:40;4.65;;;2.20;;
77164;SDS011;66140;50.280;18.660;2023-02-01T11:41:33;7.03;;;2.72;;
77164;SDS011;66140;50.280;18.660;2023-02-01T11:44:00;5.72;;;2.25;;
77164;SDS011;66140;50.280;18.660;2023-02-01T11:46:40;5.03;;;1.77;;
77164;SDS011;66140;50.280;18.660;2023-02-01T11:51:54;6.25;;;2.03;;
77164;SDS011;66140;50.280;18.660;2023-02-01T12:06:33;4.55;;;1.85;;
77164;SDS011;66140;50.280;18.660;2023-02-01T12:23:06;7.20;;;3.00;;
77164;SDS011;66140;50.280;18.660;2023-02-01T12:43:13;8.68;;;3.03;;
77164;SDS011;66140;50.280;18.660;2023-02-01T12:46:40;6.57;;;2.83;;
77164;SDS011;66140;50.280;18.660;2023-02-01T12:49:57;6.80;;;3.05;;
77164;SDS011;66140;50.280;18.660;2023-02-01T13:23:39;4.63;;;2.53;;
77164;SDS011;66140;50.280;18.660;2023-02-01T13:58:42;8.00;;;2.17;;
77164;SDS011;66140;50.280;18.660;2023-02-01T14:12:55;6.03;;;2.90;;
77164;SDS011;66140;50.280;18.660;2023-02-01T14:16:30;6.05;;;3.03;;
77164;SDS011;66140;50.280;18.660;2023-02-01T14:30:07;4.85;;;2.80;;
77164;SDS011;66140;50.280;18.660;2023-02-01T14:40:50;3.67;;;2.25;;
77164;SDS011;66140;50.280;18.660;2023-02-01T15:06:57;4.25;;;2.47;;
77164;SDS011;66140;50.280;18.660;2023-02-01T15:45:47;5.47;;;3.03;;
77164;SDS011;66140;50.280;18.660;2023-02-01T15:48:22;3.10;;;1.52;;
77164;SDS011;66140;50.280;18.660;2023-02-01T15:50:58;6.82;;;4.25;;
77164;SDS011;66140;50.280;18.660;2023-02-01T16:00:58;5.50;;;3.22;;
77164;SDS011;66140;50.280;18.660;2023-02-01T16:06:33;3.65;;;2.45;;
77164;SDS011;66140;50.280;18.660;2023-02-01T16:09:17;4.43;;;2.60;;
77164;SDS011;66140;50.280;18.660;2023-02-01T16:11:51;16.42;;;5.35;;
77164;SDS011;66140;50.280;18.660;2023-02-01T16:14:30;4.55;;;2.92;;
77164;SDS011;66140;50.280;18.660;2023-02-01T16:17:08;10.02;;;3.58;;
77164;SDS011;66140;50.280;18.660;2023-02-01T16:19:37;7.80;;;3.55;;
77164;SDS011;66140;50.280;18.660;2023-02-01T16:22:02;8.07;;;3.88;;
77164;SDS011;66140;50.280;18.660;2023-02-01T16:24:28;6.00;;;3.55;;
77164;SDS011;66140;50.280;18.660;2023-02-01T16:26:57;10.85;;;4.40;;
77164;SDS011;66140;50.280;18.660;2023-02-01T16:29:23;9.63;;;4.20;;
77164;SDS011;66140;50.280;18.660;2023-02-01T16:31:49;8.50;;;3.28;;
77164;SDS011;66140;50.280;18.660;2023-02-01T16:34:15;9.65;;;3.42;;
77164;SDS011;66140;50.280;18.660;2023-02-01T16:36:48;8.73;;;4.05;;
77164;SDS011;66140;50.280;18.660;2023-02-01T16:39:17;6.40;;;3.28;;
77164;SDS011;66140;50.280;18.660;2023-02-01T16:41:44;5.47;;;2.55;;
77164;SDS011;66140;50.280;18.660;2023-02-01T16:44:20;2.90;;;2.25;;
77164;SDS011;66140;50.280;18.660;2023-02-01T16:46:46;5.07;;;2.25;;
77164;SDS011;66140;50.280;18.660;2023-02-01T16:49:17;5.60;;;2.88;;
77164;SDS011;66140;50.280;18.660;2023-02-01T16:51:45;6.63;;;3.17;;
77164;SDS011;66140;50.280;18.660;2023-02-01T16:54:13;4.97;;;2.75;;
77164;SDS011;66140;50.280;18.660;2023-02-01T16:56:39;6.70;;;3.10;;
77164;SDS011;66140;50.280;18.660;2023-02-01T16:59:07;7.15;;;3.33;;
77164;SDS011;66140;50.280;18.660;2023-02-01T17:01:33;1.92;;;1.50;;
77164;SDS011;66140;50.280;18.660;2023-02-01T17:04:02;6.75;;;3.00;;
77164;SDS011;66140;50.280;18.660;2023-02-01T17:06:28;6.28;;;3.10;;
77164;SDS011;66140;50.280;18.660;2023-02-01T17:08:55;10.05;;;2.45;;
77164;SDS011;66140;50.280;18.660;2023-02-01T17:11:25;6.13;;;3.28;;
77164;SDS011;66140;50.280;18.660;2023-02-01T17:13:51;6.50;;;2.45;;
77164;SDS011;66140;50.280;18.660;2023-02-01T17:18:43;9.83;;;5.80;;
77164;SDS011;66140;50.280;18.660;2023-02-01T17:21:11;7.43;;;4.38;;
77164;SDS011;66140;50.280;18.660;2023-02-01T17:23:37;8.52;;;4.00;;
77164;SDS011;66140;50.280;18.660;2023-02-01T17:26:24;9.35;;;3.22;;
77164;SDS011;66140;50.280;18.660;2023-02-01T17:28:50;7.95;;;3.85;;
77164;SDS011;66140;50.280;18.660;2023-02-01T17:31:28;10.73;;;3.65;;
77164;SDS011;66140;50.280;18.660;2023-02-01T17:33:53;11.00;;;5.00;;
77164;SDS011;66140;50.280;18.660;2023-02-01T17:36:19;11.60;;;5.20;;
77164;SDS011;66140;50.280;18.660;2023-02-01T17:38:50;9.82;;;4.40;;
77164;SDS011;66140;50.280;18.660;2023-02-01T17:43:54;6.85;;;4.25;;
77164;SDS011;66140;50.280;18.660;2023-02-01T17:46:20;8.32;;;4.18;;
77164;SDS011;66140;50.280;18.660;2023-02-01T17:49:04;7.68;;;4.75;;
77164;SDS011;66140;50.280;18.660;2023-02-01T17:51:30;12.38;;;4.95;;
77164;SDS011;66140;50.280;18.660;2023-02-01T17:56:24;12.00;;;4.50;;
77164;SDS011;66140;50.280;18.660;2023-02-01T17:58:53;9.70;;;5.25;;
77164;SDS011;66140;50.280;18.660;2023-02-01T18:01:21;10.85;;;5.75;;
77164;SDS011;66140;50.280;18.660;2023-02-01T18:03:48;16.23;;;6.10;;
77164;SDS011;66140;50.280;18.660;2023-02-01T18:06:20;8.32;;;5.07;;
77164;SDS011;66140;50.280;18.660;2023-02-01T18:08:47;9.43;;;5.05;;
77164;SDS011;66140;50.280;18.660;2023-02-01T18:11:14;7.82;;;4.95;;
77164;SDS011;66140;50.280;18.660;2023-02-01T18:13:41;10.70;;;5.28;;
77164;SDS011;66140;50.280;18.660;2023-02-01T18:16:26;9.32;;;5.38;;
77164;SDS011;66140;50.280;18.660;2023-02-01T18:18:53;5.32;;;3.60;;
77164;SDS011;66140;50.280;18.660;2023-02-01T18:21:28;12.88;;;5.10;;
77164;SDS011;66140;50.280;18.660;2023-02-01T18:24:00;7.97;;;4.78;;
77164;SDS011;66140;50.280;18.660;2023-02-01T18:26:26;8.10;;;4.78;;
77164;SDS011;66140;50.280;18.660;2023-02-01T18:28:51;9.80;;;3.75;;
77164;SDS011;66140;50.280;18.660;2023-02-01T18:31:24;9.73;;;4.18;;
77164;SDS011;66140;50.280;18.660;2023-02-01T18:33:51;6.75;;;3.78;;
77164;SDS011;66140;50.280;18.660;2023-02-01T18:36:18;7.00;;;3.60;;
77164;SDS011;66140;50.280;18.660;2023-02-01T18:38:44;8.23;;;4.18;;
77164;SDS011;66140;50.280;18.660;2023-02-01T18:44:53;11.63;;;4.95;;
77164;SDS011;66140;50.280;18.660;2023-02-01T18:48:06;6.78;;;3.50;;
77164;SDS011;66140;50.280;18.660;2023-02-01T18:50:34;13.52;;;5.63;;
77164;SDS011;66140;50.280;18.660;2023-02-01T18:53:02;10.15;;;4.43;;
77164;SDS011;66140;50.280;18.660;2023-02-01T19:02:20;21.02;;;8.48;;
77164;SDS011;66140;50.280;18.660;2023-02-01T19:04:46;23.83;;;9.45;;
77164;SDS011;66140;50.280;18.660;2023-02-01T19:07:15;26.83;;;12.57;;
77164;SDS011;66140;50.280;18.660;2023-02-01T19:09:41;35.13;;;16.00;;
77164;SDS011;66140;50.280;18.660;2023-02-01T19:12:09;43.45;;;17.45;;
77164;SDS011;66140;50.280;18.660;2023-02-01T19:14:40;31.17;;;13.65;;
77164;SDS011;66140;50.280;18.660;2023-02-01T19:17:09;31.52;;;14.50;;
77164;SDS011;66140;50.280;18.660;2023-02-01T19:19:38;37.97;;;17.02;;
77164;SDS011;66140;50.280;18.660;2023-02-01T19:22:19;27.60;;;13.63;;
77164;SDS011;66140;50.280;18.660;2023-02-01T19:24:44;30.17;;;13.73;;
77164;SDS011;66140;50.280;18.660;2023-02-01T19:27:13;27.90;;;13.20;;
77164;SDS011;66140;50.280;18.660;2023-02-01T19:32:36;30.45;;;13.10;;
77164;SDS011;66140;50.280;18.660;2023-02-01T19:36:00;21.95;;;10.35;;
77164;SDS011;66140;50.280;18.660;2023-02-01T19:38:33;30.23;;;13.60;;
77164;SDS011;66140;50.280;18.660;2023-02-01T19:40:59;27.50;;;11.93;;
77164;SDS011;66140;50.280;18.660;2023-02-01T19:46:38;21.75;;;10.05;;
77164;SDS011;66140;50.280;18.660;2023-02-01T19:49:04;29.17;;;12.50;;
77164;SDS011;66140;50.280;18.660;2023-02-01T19:51:35;29.35;;;12.73;;
77164;SDS011;66140;50.280;18.660;2023-02-01T19:54:06;25.23;;;12.60;;
77164;SDS011;66140;50.280;18.660;2023-02-01T19:56:33;29.00;;;12.57;;
77164;SDS011;66140;50.280;18.660;2023-02-01T19:58:59;29.42;;;13.13;;
77164;SDS011;66140;50.280;18.660;2023-02-01T20:01:31;27.92;;;12.35;;
77164;SDS011;66140;50.280;18.660;2023-02-01T20:03:57;26.08;;;11.65;;
77164;SDS011;66140;50.280;18.660;2023-02-01T20:06:30;28.30;;;13.52;;
77164;SDS011;66140;50.280;18.660;2023-02-01T20:08:56;32.55;;;15.15;;
77164;SDS011;66140;50.280;18.660;2023-02-01T20:11:23;29.90;;;15.00;;
77164;SDS011;66140;50.280;18.660;2023-02-01T20:13:53;33.55;;;14.45;;
77164;SDS011;66140;50.280;18.660;2023-02-01T20:16:20;31.80;;;14.07;;
77164;SDS011;66140;50.280;18.660;2023-02-01T20:18:46;22.90;;;11.55;;
77164;SDS011;66140;50.280;18.660;2023-02-01T20:21:12;28.05;;;10.38;;
77164;SDS011;66140;50.280;18.660;2023-02-01T20:23:37;17.52;;;10.35;;
77164;SDS011;66140;50.280;18.660;2023-02-01T20:26:03;15.45;;;7.28;;
77164;SDS011;66140;50.280;18.660;2023-02-01T20:28:30;15.38;;;8.13;;
